createdAt,value
2023-05-06T00:02:18.546Z,11.97
2023-05-06T00:07:20.117Z,11.94
2023-05-06T00:12:21.670Z,11.89
2023-05-06T00:17:23.269Z,11.88
2023-05-06T00:22:25.279Z,11.79
2023-05-06T00:27:27.143Z,11.68
2023-05-06T00:32:28.776Z,11.66
2023-05-06T00:37:30.477Z,11.66
2023-05-06T00:42:33.210Z,11.62
2023-05-06T00:47:34.841Z,11.58
2023-05-06T00:52:36.525Z,11.56
2023-05-06T00:57:40.278Z,11.45
2023-05-06T01:02:47.403Z,11.41
2023-05-06T01:08:25.420Z,11.33
2023-05-06T01:13:38.877Z,11.34
2023-05-06T01:18:41.043Z,11.41
2023-05-06T01:23:58.070Z,11.47
2023-05-06T01:29:02.054Z,11.46
2023-05-06T01:34:27.996Z,11.48
2023-05-06T01:39:32.269Z,11.49
2023-05-06T01:44:37.022Z,11.53
2023-05-06T01:49:39.114Z,11.49
2023-05-06T01:54:40.583Z,11.45
2023-05-06T01:59:42.108Z,11.40
2023-05-06T02:04:43.699Z,11.38
2023-05-06T02:09:45.359Z,11.39
2023-05-06T02:14:46.897Z,11.27
2023-05-06T02:19:48.424Z,11.23
2023-05-06T02:24:49.902Z,11.27
2023-05-06T02:29:51.368Z,11.42
2023-05-06T02:34:53.228Z,11.41
2023-05-06T02:39:54.749Z,11.46
2023-05-06T02:44:56.259Z,11.57
2023-05-06T02:49:57.927Z,11.58
2023-05-06T02:54:59.452Z,11.67
2023-05-06T03:00:00.977Z,11.67
2023-05-06T03:05:04.624Z,11.72
2023-05-06T03:10:07.340Z,11.68
2023-05-06T03:15:09.293Z,11.70
2023-05-06T03:20:11.246Z,11.68
2023-05-06T03:25:12.831Z,11.61
2023-05-06T03:30:14.469Z,11.59
2023-05-06T03:35:16.668Z,11.54
2023-05-06T03:40:18.200Z,11.52
2023-05-06T03:45:19.797Z,11.52
2023-05-06T03:50:21.356Z,11.57
2023-05-06T03:55:22.902Z,11.57
2023-05-06T04:00:24.491Z,11.47
2023-05-06T04:05:26.028Z,11.36
2023-05-06T04:10:27.549Z,11.23
2023-05-06T04:15:31.966Z,11.12
2023-05-06T04:20:33.507Z,10.99
2023-05-06T04:25:35.824Z,10.94
2023-05-06T04:30:37.577Z,11.03
2023-05-06T04:35:39.806Z,11.03
2023-05-06T04:40:41.368Z,11.04
2023-05-06T04:45:49.463Z,10.97
2023-05-06T04:50:51.274Z,10.96
2023-05-06T04:55:52.843Z,10.95
2023-05-06T05:00:54.460Z,11.06
2023-05-06T05:05:56.081Z,11.11
2023-05-06T05:10:57.595Z,11.22
2023-05-06T05:15:59.129Z,11.36
2023-05-06T05:21:00.722Z,11.49
2023-05-06T05:26:03.369Z,11.64
2023-05-06T05:31:06.584Z,11.79
2023-05-06T05:36:09.476Z,11.96
2023-05-06T05:41:11.164Z,12.16
2023-05-06T05:46:12.725Z,12.37
2023-05-06T05:51:14.327Z,12.51
2023-05-06T05:56:15.884Z,12.76
2023-05-06T06:01:17.740Z,13.11
2023-05-06T06:06:19.432Z,13.32
2023-05-06T06:11:21.446Z,13.28
2023-05-06T06:16:23.103Z,13.43
2023-05-06T06:21:24.694Z,13.47
2023-05-06T06:26:26.242Z,13.48
2023-05-06T06:31:29.309Z,13.80
2023-05-06T06:36:31.037Z,13.97
2023-05-06T06:41:33.874Z,14.12
2023-05-06T06:46:35.406Z,14.13
2023-05-06T06:51:36.897Z,14.19
2023-05-06T06:56:38.433Z,14.41
2023-05-06T07:01:41.235Z,14.74
2023-05-06T07:06:42.951Z,14.85
2023-05-06T07:11:44.464Z,14.99
2023-05-06T07:16:47.156Z,14.87
2023-05-06T07:21:49.603Z,14.78
2023-05-06T07:26:51.130Z,14.72
2023-05-06T07:31:52.656Z,14.72
2023-05-06T07:36:54.133Z,14.78
2023-05-06T07:41:55.663Z,15.07
2023-05-06T07:46:57.263Z,15.21
2023-05-06T07:51:59.418Z,15.43
2023-05-06T07:57:00.967Z,15.64
2023-05-06T08:02:02.532Z,15.68
2023-05-06T08:07:04.132Z,15.68
2023-05-06T08:12:06.067Z,15.77
2023-05-06T08:17:07.616Z,15.79
2023-05-06T08:22:09.120Z,15.85
2023-05-06T08:27:10.635Z,15.93
2023-05-06T08:32:12.240Z,15.98
2023-05-06T08:37:13.789Z,16.02
2023-05-06T08:42:15.348Z,16.02
2023-05-06T08:47:16.807Z,16.03
2023-05-06T08:52:21.399Z,16.03
2023-05-06T08:57:22.935Z,16.24
2023-05-06T09:02:25.558Z,16.34
2023-05-06T09:07:27.172Z,16.54
2023-05-06T09:12:29.368Z,16.78
2023-05-06T09:17:32.587Z,16.77
2023-05-06T09:22:36.951Z,16.74
2023-05-06T09:27:38.747Z,16.93
2023-05-06T09:32:41.038Z,16.99
2023-05-06T09:37:42.627Z,17.14
2023-05-06T09:42:44.546Z,17.13
2023-05-06T09:47:47.079Z,17.14
2023-05-06T09:52:49.933Z,17.23
2023-05-06T09:57:51.966Z,17.30
2023-05-06T10:02:54.606Z,18.51
2023-05-06T10:07:57.335Z,20.91
2023-05-06T10:12:58.905Z,22.02
2023-05-06T10:18:04.340Z,22.17
2023-05-06T10:23:14.816Z,22.49
2023-05-06T10:28:17.146Z,22.12
2023-05-06T10:33:24.353Z,21.53
2023-05-06T10:38:42.380Z,20.74
2023-05-06T10:43:45.601Z,20.89
2023-05-06T10:49:06.155Z,19.84
2023-05-06T10:54:11.596Z,19.09
2023-05-06T10:59:13.161Z,18.70
2023-05-06T11:04:18.799Z,18.77
2023-05-06T11:09:23.138Z,18.60
2023-05-06T11:14:34.295Z,18.33
2023-05-06T11:19:37.684Z,18.46
2023-05-06T11:24:43.549Z,18.48
2023-05-06T11:29:45.363Z,18.43
2023-05-06T11:34:46.989Z,18.53
2023-05-06T11:39:49.231Z,18.49
2023-05-06T11:44:53.014Z,18.27
2023-05-06T11:49:59.100Z,18.24
2023-05-06T11:55:00.718Z,18.10
2023-05-06T12:00:04.882Z,18.29
2023-05-06T12:05:07.157Z,18.34
2023-05-06T12:10:09.450Z,18.38
2023-05-06T12:15:12.184Z,18.29
2023-05-06T12:20:13.852Z,18.30
2023-05-06T12:25:16.056Z,18.46
2023-05-06T12:30:32.337Z,18.74
2023-05-06T12:35:33.892Z,18.67
2023-05-06T12:40:36.095Z,18.68
2023-05-06T12:45:41.168Z,18.54
2023-05-06T12:50:44.567Z,18.56
2023-05-06T12:55:46.475Z,18.70
2023-05-06T13:00:48.072Z,18.74
2023-05-06T13:05:51.810Z,18.76
2023-05-06T13:10:53.373Z,18.82
2023-05-06T13:15:54.921Z,18.86
2023-05-06T13:20:56.839Z,19.01
2023-05-06T13:26:04.928Z,18.84
2023-05-06T13:31:08.016Z,18.63
2023-05-06T13:36:09.912Z,18.70
2023-05-06T13:41:11.492Z,18.63
2023-05-06T13:46:13.137Z,18.46
2023-05-06T13:51:14.729Z,18.46
2023-05-06T13:56:16.214Z,18.40
2023-05-06T14:01:17.844Z,18.37
2023-05-06T14:06:19.356Z,18.32
2023-05-06T14:11:20.921Z,18.32
2023-05-06T14:16:22.672Z,18.32
2023-05-06T14:21:24.410Z,18.32
2023-05-06T14:26:26.755Z,18.22
2023-05-06T14:31:29.566Z,18.15
2023-05-06T14:36:31.210Z,18.32
2023-05-06T14:41:32.764Z,18.27
2023-05-06T14:46:34.604Z,18.35
2023-05-06T14:51:36.213Z,18.31
2023-05-06T14:56:37.804Z,18.39
2023-05-06T15:01:40.155Z,18.45
2023-05-06T15:06:41.685Z,18.56
2023-05-06T15:11:44.184Z,18.54
2023-05-06T15:16:45.809Z,18.40
2023-05-06T15:21:47.393Z,18.19
2023-05-06T15:26:49.145Z,18.11
2023-05-06T15:31:50.700Z,18.09
2023-05-06T15:36:53.684Z,18.15
2023-05-06T15:41:58.095Z,18.10
2023-05-06T15:46:59.614Z,18.08
2023-05-06T15:52:01.606Z,18.12
2023-05-06T15:57:07.083Z,18.10
2023-05-06T16:07:13.391Z,18.04
2023-05-06T16:12:14.851Z,18.05
2023-05-06T16:17:16.511Z,18.04
2023-05-06T16:22:18.098Z,18.05
2023-05-06T16:27:19.697Z,18.03
2023-05-06T16:32:21.526Z,17.93
2023-05-06T16:37:23.127Z,17.82
2023-05-06T16:42:24.738Z,17.75
2023-05-06T16:47:26.875Z,17.73
2023-05-06T16:52:30.153Z,17.77
2023-05-06T16:57:32.316Z,17.80
2023-05-06T17:02:34.455Z,17.67
2023-05-06T17:07:36.044Z,17.66
2023-05-06T17:12:38.381Z,17.65
2023-05-06T17:17:39.982Z,17.57
2023-05-06T17:22:41.565Z,17.53
2023-05-06T17:27:43.136Z,17.51
2023-05-06T17:32:44.902Z,17.45
2023-05-06T17:37:46.569Z,17.40
2023-05-06T17:42:48.161Z,17.39
2023-05-06T17:47:50.960Z,17.26
2023-05-06T17:52:54.458Z,17.15
2023-05-06T17:57:55.950Z,16.72
2023-05-06T18:02:57.721Z,16.04
2023-05-06T18:07:59.292Z,15.81
2023-05-06T18:13:01.059Z,15.83
2023-05-06T18:18:02.839Z,15.75
2023-05-06T18:23:04.376Z,15.63
2023-05-06T18:28:05.967Z,15.49
2023-05-06T18:33:07.508Z,15.40
2023-05-06T18:38:09.661Z,15.31
2023-05-06T18:43:12.267Z,15.14
2023-05-06T18:48:13.809Z,15.06
2023-05-06T18:53:15.384Z,14.88
2023-05-06T18:58:18.572Z,14.62
2023-05-06T19:03:20.123Z,14.40
2023-05-06T19:08:21.693Z,14.43
2023-05-06T19:13:23.393Z,14.48
2023-05-06T19:18:25.046Z,14.47
2023-05-06T19:23:26.870Z,14.43
2023-05-06T19:28:28.482Z,14.41
2023-05-06T19:33:29.953Z,14.39
2023-05-06T19:38:31.730Z,14.45
2023-05-06T19:43:33.327Z,14.43
2023-05-06T19:48:36.886Z,14.48
2023-05-06T19:53:38.641Z,14.52
2023-05-06T19:58:40.663Z,14.54
2023-05-06T20:03:42.222Z,14.53
2023-05-06T20:08:44.220Z,14.53
2023-05-06T20:13:45.808Z,14.51
2023-05-06T20:18:47.723Z,14.50
2023-05-06T20:23:49.222Z,14.52
2023-05-06T20:28:52.424Z,14.48
2023-05-06T20:33:53.930Z,14.39
2023-05-06T20:38:55.394Z,14.36
2023-05-06T20:43:57.391Z,14.37
2023-05-06T20:48:59.026Z,14.34
2023-05-06T20:54:01.165Z,14.33
2023-05-06T20:59:02.886Z,14.33
2023-05-06T21:04:06.032Z,14.28
2023-05-06T21:09:07.666Z,14.22
2023-05-06T21:14:09.211Z,14.20
2023-05-06T21:19:10.739Z,14.20
2023-05-06T21:24:12.940Z,14.22
2023-05-06T21:29:14.547Z,14.20
2023-05-06T21:34:16.089Z,14.14
2023-05-06T21:39:17.584Z,14.09
2023-05-06T21:44:19.495Z,14.07
2023-05-06T21:49:22.282Z,14.08
2023-05-06T21:54:24.632Z,14.08
2023-05-06T21:59:26.230Z,14.06
2023-05-06T22:04:27.917Z,14.10
2023-05-06T22:09:29.440Z,14.12
2023-05-06T22:14:40.530Z,14.14
2023-05-06T22:19:43.227Z,14.15
2023-05-06T22:24:45.257Z,14.16
2023-05-06T22:29:46.810Z,14.13
2023-05-06T22:34:49.128Z,14.14
2023-05-06T22:39:52.960Z,14.13
2023-05-06T22:44:54.491Z,14.08
2023-05-06T22:49:56.011Z,14.02
2023-05-06T22:54:57.510Z,13.99
2023-05-06T22:59:58.980Z,13.93
2023-05-06T23:05:00.541Z,13.94
2023-05-06T23:10:02.302Z,13.96
2023-05-06T23:15:04.094Z,13.95
2023-05-06T23:20:06.378Z,13.96
2023-05-06T23:25:10.790Z,13.96
2023-05-06T23:30:13.383Z,13.91
2023-05-06T23:35:16.050Z,13.88
2023-05-06T23:40:17.531Z,13.86
2023-05-06T23:45:20.316Z,13.84
2023-05-06T23:50:21.827Z,13.89
2023-05-06T23:55:23.419Z,13.89
